Littleton, CO (80123)

5:02 PM MDT on August 25, 2016 (GMT -0600)
Chatfield Heights | | Change Station

Elev 5551 ft 39.56 °N, 105.07 °W | Updated 1 second ago

Light Rain
Light Rain
64.0 °F
Feels Like 64.0 °F
N
0.0
Wind Variable Wind from ESE
Gusts 2.0 mph

Today
High -- | Low -- °F
--% Chance of Precip.
Yesterday
High -- | Low -- °F
Precip. -- in
Pressure 30.20 in
Visibility 8.0 miles
Clouds Scattered Clouds 6500 ft
Mostly Cloudy 12000 ft
Mostly Cloudy 20000 ft
Dew Point 52 °F
Humidity 66%
Rainfall 0.02 in
Snow Depth Not available.
6:22 AM 7:41 PM
Last Quarter, 41% visible
METAR KAPA 252253Z 06006KT 8SM -RA SCT065 BKN120 BKN200 14/10 A3028 RMK AO2 RAB01 TSE49 SLP226 OCNL LTGICCG DSNT NE AND SE CB DSNT NE-SE MOV E P0006 T01440100
Pressure 30.20 in
Visibility 8.0 miles
Clouds Scattered Clouds 6500 ft
Mostly Cloudy 12000 ft
Mostly Cloudy 20000 ft
Dew Point 52 °F
Humidity 66%
Rainfall 0.02 in
Snow Depth Not available.
6:22 AM 7:41 PM
Last Quarter, 41% visible
METAR KAPA 252253Z 06006KT 8SM -RA SCT065 BKN120 BKN200 14/10 A3028 RMK AO2 RAB01 TSE49 SLP226 OCNL LTGICCG DSNT NE AND SE CB DSNT NE-SE MOV E P0006 T01440100
A tropical disturbance pushing toward the Bahamas, is expected to develop into a tropical depression or storm, and will likely target Florida and the Gulf Coast this weekend into next week.

Right now, the disturbance remains a broad area of low pressure pushing through the Dominican Republic and Haiti, headed toward the southeast Bahamas. Rainfall totals over 3 inches (with locally higher amounts) are expected in HispaƱiola, particularly over elevated terrain.

10-Day Weather Forecast

Almanac

Astronomy

Aug. 25, 2016 Rise Set
Actual Time
Civil Twilight
Nautical Twilight
Astronomical Twilight
Moon
Length of Visible Light
Length of Day
Tomorrow will be .
, % of the Moon is Illuminated

Today's Extremes

State Highs State Lows

Community

WunderPhotos

Upload Photos

1,934,956 photos uploaded!

WunderBlog® & News

Nearby

Air Quality

  Air Quality AQ Index Pollutant
Not available.

Snow Depth

Station Depth Elevation

Earthquake Activity

City Distance Mag. Time & Date
Minimum magnitude displayed is 2.5.

Coastal Water Temperatures

Place Temperature

Stations

Nearby Weather Stations

Station Location Temp. Windchill Dew Point Humidity Wind Precip. Elev Updated Type
                   

Watches & Warnings

There are currently no watches in effect.